Time;durP1;ratioP1;P1;durP2;ratioP2;P2;SDS_P1;SDS_P2;PMS_P1;PMS_P2;Temp;Humidity;BMP_temperature;BMP_pressure;BME280_temperature;BME280_humidity;BME280_pressure;Samples;Min_cycle;Max_cycle;Signal;HPM_P1;HPM_P2
2020/12/04 00:00:53;;;;;;;7.13;5.40;;;18.90;46.00;;;;;;5086396;28;20078;-49
2020/12/04 00:03:18;;;;;;;5.72;5.10;;;18.90;46.10;;;;;;5087275;28;20085;-50
2020/12/04 00:05:44;;;;;;;7.03;5.00;;;18.90;46.00;;;;;;5083670;28;20048;-49
2020/12/04 00:08:09;;;;;;;8.60;4.82;;;18.90;46.00;;;;;;5068713;28;20071;-47
2020/12/04 00:10:35;;;;;;;8.50;4.78;;;18.90;46.00;;;;;;5060429;28;20052;-49
2020/12/04 00:13:00;;;;;;;6.40;5.40;;;18.90;46.00;;;;;;5086765;28;20328;-45
2020/12/04 00:15:26;;;;;;;7.07;4.65;;;18.90;46.00;;;;;;5086789;28;20043;-46
2020/12/04 00:17:51;;;;;;;7.05;4.70;;;19.00;45.90;;;;;;5087109;28;20484;-47
2020/12/04 00:20:17;;;;;;;7.82;4.65;;;19.00;45.90;;;;;;5087558;28;20111;-45
2020/12/04 00:22:42;;;;;;;6.95;4.80;;;19.00;46.00;;;;;;5086721;28;20042;-45
2020/12/04 00:25:08;;;;;;;6.05;4.32;;;19.00;45.90;;;;;;5087227;28;20348;-46
2020/12/04 00:27:33;;;;;;;5.07;3.97;;;19.00;45.80;;;;;;5086509;28;20024;-46
2020/12/04 00:29:59;;;;;;;8.07;4.20;;;19.00;45.70;;;;;;5086411;28;20040;-46
2020/12/04 00:32:24;;;;;;;6.32;4.53;;;19.00;46.40;;;;;;5085686;28;20103;-46
2020/12/04 00:34:50;;;;;;;7.53;4.15;;;19.00;45.70;;;;;;5086964;28;20020;-46
2020/12/04 00:37:15;;;;;;;5.72;4.35;;;19.00;45.70;;;;;;5086568;28;20039;-46
2020/12/04 00:39:41;;;;;;;6.00;4.25;;;19.00;45.70;;;;;;5068194;28;20107;-47
2020/12/04 00:42:07;;;;;;;4.88;4.32;;;19.00;45.70;;;;;;5086433;28;20054;-46
2020/12/04 00:44:32;;;;;;;4.97;4.47;;;19.00;45.70;;;;;;5086188;28;20517;-46
2020/12/04 00:47:01;;;;;;;5.60;4.50;;;19.10;45.70;;;;;;5086215;28;20028;-46
2020/12/04 00:49:26;;;;;;;5.65;4.68;;;19.00;45.70;;;;;;5085875;28;20119;-46
2020/12/04 00:51:52;;;;;;;5.20;4.35;;;19.00;45.70;;;;;;5067937;28;20119;-46
2020/12/04 00:54:18;;;;;;;6.35;4.25;;;19.00;45.60;;;;;;5086311;28;20516;-49
2020/12/04 00:56:43;;;;;;;5.82;4.45;;;19.10;45.60;;;;;;5086698;28;20028;-48
2020/12/04 00:59:08;;;;;;;5.30;3.80;;;19.10;45.50;;;;;;5085197;28;20108;-46
2020/12/04 01:01:34;;;;;;;5.80;3.88;;;19.10;45.70;;;;;;5080901;22;20047;-54
2020/12/04 01:03:59;;;;;;;5.20;3.80;;;19.10;45.60;;;;;;5059989;28;20033;-52
2020/12/04 01:06:25;;;;;;;7.43;3.90;;;19.10;46.40;;;;;;5066211;28;20112;-56
2020/12/04 01:08:51;;;;;;;4.07;3.67;;;19.10;45.50;;;;;;5066410;28;20035;-53
2020/12/04 01:11:19;;;;;;;4.78;3.83;;;19.10;45.50;;;;;;5064464;28;20036;-54
2020/12/04 01:13:45;;;;;;;3.40;3.10;;;19.10;45.70;;;;;;5065329;28;20028;-52
2020/12/04 01:16:10;;;;;;;6.05;4.07;;;19.10;45.60;;;;;;5065551;28;20028;-53
2020/12/04 01:18:37;;;;;;;4.97;3.70;;;19.10;45.60;;;;;;5066159;28;20089;-54
2020/12/04 01:21:03;;;;;;;5.85;3.70;;;19.10;45.60;;;;;;5065343;28;20444;-54
2020/12/04 01:23:29;;;;;;;5.40;4.20;;;19.10;45.50;;;;;;5065681;28;20056;-54
2020/12/04 01:25:54;;;;;;;4.82;3.85;;;19.10;45.50;;;;;;5065845;28;20505;-53
2020/12/04 01:28:20;;;;;;;4.30;3.70;;;19.10;45.60;;;;;;5065724;28;20064;-52
2020/12/04 01:30:45;;;;;;;5.25;4.00;;;19.10;45.50;;;;;;5064919;28;20029;-53
2020/12/04 01:33:11;;;;;;;4.38;3.58;;;19.10;45.60;;;;;;5064814;28;20075;-54
2020/12/04 01:35:36;;;;;;;4.18;3.60;;;19.10;45.40;;;;;;5065264;28;20029;-55
2020/12/04 01:38:02;;;;;;;4.55;3.92;;;19.10;45.40;;;;;;5065392;28;20116;-54
2020/12/04 01:40:27;;;;;;;4.18;3.35;;;19.10;45.30;;;;;;5065768;28;20040;-54
2020/12/04 01:42:53;;;;;;;4.80;3.50;;;19.10;45.50;;;;;;5064941;28;20468;-54
2020/12/04 01:45:18;;;;;;;4.50;3.25;;;19.10;45.30;;;;;;5064967;28;20414;-55
2020/12/04 01:47:44;;;;;;;4.47;3.30;;;19.10;45.30;;;;;;5064578;28;20039;-52
2020/12/04 01:50:09;;;;;;;5.47;4.00;;;19.10;45.30;;;;;;5030919;28;20037;-55
2020/12/04 01:52:35;;;;;;;3.88;3.20;;;19.10;45.40;;;;;;5064451;28;20021;-56
2020/12/04 01:55:00;;;;;;;5.82;3.67;;;19.10;45.40;;;;;;5064613;28;20406;-56
2020/12/04 01:57:27;;;;;;;4.80;3.60;;;19.10;45.30;;;;;;5085273;28;20135;-55
2020/12/04 01:59:53;;;;;;;4.13;3.08;;;19.10;45.40;;;;;;5070779;28;20032;-53
2020/12/04 02:02:20;;;;;;;4.47;3.55;;;19.10;45.40;;;;;;5064513;28;20494;-54
2020/12/04 02:04:46;;;;;;;4.90;3.53;;;19.10;45.50;;;;;;5064771;28;20040;-55
2020/12/04 02:07:36;;;;;;;4.00;3.22;;;19.10;45.50;;;;;;5064699;28;20151;-54
2020/12/04 02:10:03;;;;;;;3.58;3.25;;;19.10;45.40;;;;;;5047763;28;21012;-54
2020/12/04 02:12:28;;;;;;;4.35;3.42;;;19.10;45.60;;;;;;5046822;28;20029;-54
2020/12/04 02:14:54;;;;;;;3.20;2.90;;;19.10;45.50;;;;;;5046874;28;20043;-54
2020/12/04 02:17:30;;;;;;;3.47;3.00;;;19.10;45.50;;;;;;5046946;28;20033;-55
2020/12/04 02:19:55;;;;;;;3.90;3.13;;;19.10;45.40;;;;;;5065269;28;20466;-54
2020/12/04 02:22:21;;;;;;;4.60;2.70;;;19.00;45.50;;;;;;5066571;28;20066;-54
2020/12/04 02:24:46;;;;;;;4.18;3.15;;;19.00;45.40;;;;;;5084998;28;20554;-56
2020/12/04 02:27:14;;;;;;;4.93;3.33;;;19.00;45.50;;;;;;5066344;28;20032;-55
2020/12/04 02:29:40;;;;;;;3.63;3.13;;;19.00;45.50;;;;;;5084536;28;20120;-54
2020/12/04 02:32:24;;;;;;;4.35;3.60;;;19.00;45.50;;;;;;5084004;28;20485;-56
2020/12/04 02:34:49;;;;;;;3.25;2.95;;;19.00;45.40;;;;;;5084102;28;20032;-56
2020/12/04 02:37:15;;;;;;;3.88;3.08;;;19.00;45.60;;;;;;5084362;28;20039;-56
2020/12/04 02:39:40;;;;;;;3.35;3.05;;;19.00;45.50;;;;;;5084172;28;20020;-53
2020/12/04 02:42:06;;;;;;;4.63;3.60;;;19.00;45.60;;;;;;5084640;28;20457;-56
2020/12/04 02:44:32;;;;;;;4.15;2.88;;;18.90;45.50;;;;;;5084406;28;20043;-56
2020/12/04 02:46:57;;;;;;;3.72;3.38;;;19.00;45.50;;;;;;5084268;28;20044;-56
2020/12/04 02:49:23;;;;;;;4.07;3.55;;;19.00;45.40;;;;;;5084116;28;20040;-53
2020/12/04 02:51:48;;;;;;;3.80;3.03;;;19.00;45.40;;;;;;5084036;28;20048;-54
2020/12/04 02:54:15;;;;;;;3.75;2.88;;;19.00;45.40;;;;;;5083793;28;20031;-53
2020/12/04 02:56:40;;;;;;;4.00;3.47;;;18.90;45.40;;;;;;5083765;28;20028;-53
2020/12/04 02:59:06;;;;;;;4.45;3.30;;;18.90;45.40;;;;;;5083759;28;20535;-54
2020/12/04 03:01:31;;;;;;;3.95;3.42;;;19.00;45.40;;;;;;5084146;28;20558;-53
2020/12/04 03:03:57;;;;;;;4.03;3.63;;;19.00;45.30;;;;;;5066196;28;20024;-54
2020/12/04 03:06:22;;;;;;;4.53;3.15;;;19.00;45.30;;;;;;5083539;28;20043;-54
2020/12/04 03:08:49;;;;;;;3.38;3.08;;;19.00;45.20;;;;;;5083558;28;20035;-55
2020/12/04 03:11:18;;;;;;;4.80;3.58;;;19.00;45.10;;;;;;5048777;28;20552;-55
2020/12/04 03:13:43;;;;;;;3.83;3.40;;;19.00;45.00;;;;;;5065882;28;20488;-52
2020/12/04 03:16:09;;;;;;;3.90;3.50;;;19.00;45.00;;;;;;5084007;28;20060;-53
2020/12/04 03:18:34;;;;;;;3.53;3.22;;;19.00;44.90;;;;;;5084277;28;20034;-56
2020/12/04 03:21:00;;;;;;;4.63;3.50;;;19.00;45.00;;;;;;5064801;28;20024;-54
2020/12/04 03:23:25;;;;;;;3.60;3.30;;;19.00;44.90;;;;;;5083082;28;20378;-53
2020/12/04 03:25:52;;;;;;;5.13;3.70;;;19.00;44.90;;;;;;5083789;28;20040;-53
2020/12/04 03:28:18;;;;;;;4.00;3.33;;;19.00;44.80;;;;;;5083556;28;20036;-54
2020/12/04 03:30:43;;;;;;;3.95;3.45;;;19.00;44.80;;;;;;5082917;28;20039;-53
2020/12/04 03:33:09;;;;;;;3.85;3.10;;;19.00;44.90;;;;;;5083187;28;20108;-55
2020/12/04 03:35:34;;;;;;;4.30;3.17;;;19.00;44.90;;;;;;5084086;28;20539;-54
2020/12/04 03:38:00;;;;;;;3.42;3.13;;;19.00;44.80;;;;;;5082760;28;20028;-52
2020/12/04 03:40:25;;;;;;;4.10;3.10;;;19.00;44.80;;;;;;5083360;28;20032;-55
2020/12/04 03:42:50;;;;;;;4.60;3.60;;;19.00;44.80;;;;;;5082182;28;20481;-53
2020/12/04 03:45:16;;;;;;;3.97;3.58;;;19.10;44.90;;;;;;5083238;28;20028;-54
2020/12/04 03:47:41;;;;;;;4.07;3.65;;;19.00;44.70;;;;;;5083476;28;20236;-54
2020/12/04 03:50:07;;;;;;;5.70;3.55;;;19.10;44.80;;;;;;5083633;28;20365;-53
2020/12/04 03:52:33;;;;;;;3.97;2.80;;;19.10;44.80;;;;;;5082451;28;20036;-53
2020/12/04 03:54:58;;;;;;;4.18;3.22;;;19.10;44.70;;;;;;5083254;28;20028;-53
2020/12/04 03:57:24;;;;;;;4.20;3.50;;;19.10;44.70;;;;;;5083787;28;20031;-55
2020/12/04 03:59:49;;;;;;;4.10;3.47;;;19.10;44.80;;;;;;5082992;28;20033;-56
2020/12/04 04:02:15;;;;;;;3.95;3.47;;;19.10;45.30;;;;;;5081898;28;20028;-51
2020/12/04 04:04:40;;;;;;;4.18;3.40;;;19.10;44.70;;;;;;5082936;28;20031;-52
2020/12/04 04:07:06;;;;;;;3.90;3.35;;;19.10;44.70;;;;;;5083595;28;20039;-52
2020/12/04 04:09:31;;;;;;;4.40;3.28;;;19.10;44.70;;;;;;5065630;28;20024;-53
2020/12/04 04:11:57;;;;;;;4.00;3.05;;;19.10;44.70;;;;;;5082545;28;20034;-54
2020/12/04 04:14:22;;;;;;;4.28;3.30;;;19.10;44.60;;;;;;5083326;28;20036;-57
2020/12/04 04:16:48;;;;;;;4.00;3.05;;;19.10;44.70;;;;;;5083096;28;20028;-56
2020/12/04 04:19:13;;;;;;;3.42;2.97;;;19.10;44.70;;;;;;5083358;28;20036;-55
2020/12/04 04:21:39;;;;;;;4.28;3.40;;;19.00;44.70;;;;;;5081962;28;20028;-57
2020/12/04 04:24:08;;;;;;;4.30;3.70;;;19.10;44.70;;;;;;5082535;28;20481;-57
2020/12/04 04:26:34;;;;;;;4.05;3.50;;;19.00;44.70;;;;;;5083079;28;20032;-52
2020/12/04 04:29:00;;;;;;;4.07;3.20;;;19.00;44.80;;;;;;5082902;28;20036;-53
2020/12/04 04:31:25;;;;;;;3.53;3.20;;;19.00;44.80;;;;;;5083229;28;20157;-57
2020/12/04 04:33:51;;;;;;;4.35;3.22;;;19.00;44.80;;;;;;5084498;28;20469;-57
2020/12/04 04:36:16;;;;;;;3.75;2.95;;;19.00;44.70;;;;;;5085839;28;20089;-54
2020/12/04 04:38:42;;;;;;;4.70;3.90;;;19.00;44.80;;;;;;5085799;28;20032;-55
2020/12/04 04:41:07;;;;;;;3.83;3.40;;;18.90;44.70;;;;;;5086970;28;20028;-57
2020/12/04 04:43:33;;;;;;;4.18;3.60;;;18.90;44.70;;;;;;5086429;28;20417;-54
2020/12/04 04:46:15;;;;;;;4.82;3.90;;;18.90;44.80;;;;;;5086697;28;20127;-57
2020/12/04 04:48:43;;;;;;;3.92;3.53;;;18.90;44.70;;;;;;5085522;28;21927;-52
2020/12/04 04:51:08;;;;;;;5.18;3.47;;;18.90;44.70;;;;;;5051557;28;20398;-54
2020/12/04 04:53:34;;;;;;;4.38;3.45;;;18.90;44.80;;;;;;5051521;28;20053;-53
2020/12/04 04:55:59;;;;;;;3.60;3.22;;;18.80;44.80;;;;;;5067163;28;20036;-54
2020/12/04 04:58:25;;;;;;;4.15;3.67;;;18.80;44.70;;;;;;5068183;28;20043;-52
2020/12/04 05:00:51;;;;;;;4.82;3.40;;;18.80;44.70;;;;;;5084861;28;20444;-54
2020/12/04 05:03:16;;;;;;;3.78;3.47;;;18.80;44.70;;;;;;5085927;28;20392;-54
2020/12/04 05:05:46;;;;;;;6.03;4.15;;;18.80;44.60;;;;;;5086524;28;20043;-52
2020/12/04 05:08:16;;;;;;;4.43;3.53;;;18.80;44.70;;;;;;5085536;28;20036;-52
2020/12/04 05:10:44;;;;;;;3.13;2.83;;;18.80;44.60;;;;;;5085906;28;20028;-53
2020/12/04 05:13:10;;;;;;;3.92;3.35;;;18.80;45.20;;;;;;5086218;28;20173;-54
2020/12/04 05:15:36;;;;;;;3.60;3.30;;;18.70;44.60;;;;;;5068230;28;20103;-52
2020/12/04 05:18:05;;;;;;;4.95;3.53;;;18.70;44.60;;;;;;5085342;28;20711;-53
2020/12/04 05:20:31;;;;;;;4.85;3.72;;;18.70;44.70;;;;;;5085820;28;20442;-55
2020/12/04 05:22:56;;;;;;;4.60;3.40;;;18.70;44.70;;;;;;5050625;28;20028;-54
2020/12/04 05:25:22;;;;;;;3.65;3.35;;;18.70;44.80;;;;;;5086005;28;20035;-53
2020/12/04 05:27:48;;;;;;;4.03;3.50;;;18.60;44.80;;;;;;5067314;28;20023;-53
2020/12/04 05:30:25;;;;;;;3.28;2.97;;;18.60;44.70;;;;;;5086085;28;20032;-53
2020/12/04 05:33:01;;;;;;;3.50;3.20;;;18.60;44.80;;;;;;5084787;28;20528;-54
2020/12/04 05:35:27;;;;;;;4.63;3.25;;;18.60;44.80;;;;;;5085447;28;20043;-51
2020/12/04 05:38:12;;;;;;;5.18;3.10;;;18.50;44.90;;;;;;5084920;28;20021;-53
2020/12/04 05:40:38;;;;;;;6.22;3.65;;;18.50;44.80;;;;;;5085777;28;20366;-53
2020/12/04 05:43:04;;;;;;;4.05;3.22;;;18.50;44.90;;;;;;5066675;28;20675;-52
2020/12/04 05:45:31;;;;;;;4.78;3.63;;;18.50;44.90;;;;;;5083957;28;20111;-52
2020/12/04 05:47:56;;;;;;;5.28;3.60;;;18.40;44.80;;;;;;5084734;28;20028;-54
2020/12/04 05:50:22;;;;;;;3.28;2.88;;;18.40;45.00;;;;;;5073784;28;20055;-54
2020/12/04 05:52:48;;;;;;;5.78;3.90;;;18.40;44.90;;;;;;5063735;28;20021;-58
2020/12/04 05:55:15;;;;;;;4.85;3.20;;;18.40;44.90;;;;;;5064992;28;20312;-53
2020/12/04 05:57:55;;;;;;;4.22;3.58;;;18.30;45.00;;;;;;5063395;28;20385;-53
2020/12/04 06:00:21;;;;;;;6.15;3.75;;;18.30;45.10;;;;;;5045862;28;20545;-54
2020/12/04 06:02:56;;;;;;;6.05;3.78;;;18.30;45.10;;;;;;5046851;28;20035;-52
2020/12/04 06:05:22;;;;;;;6.38;3.65;;;18.20;45.00;;;;;;5047099;28;20028;-53
2020/12/04 06:07:47;;;;;;;5.18;3.58;;;18.20;45.10;;;;;;5047387;28;20035;-53
2020/12/04 06:10:13;;;;;;;7.07;3.72;;;18.20;45.10;;;;;;5029731;28;20040;-54
2020/12/04 06:12:38;;;;;;;5.70;4.00;;;18.20;45.10;;;;;;5046341;28;20529;-54
2020/12/04 06:15:39;;;;;;;6.78;3.70;;;18.20;45.00;;;;;;5064450;28;20021;-53
2020/12/04 06:18:06;;;;;;;3.75;3.38;;;18.20;45.30;;;;;;4981675;28;20030;-53
2020/12/04 06:20:42;;;;;;;4.95;3.47;;;18.20;45.30;;;;;;5046718;28;20126;-53
2020/12/04 06:23:15;;;;;;;7.32;4.97;;;18.30;45.40;;;;;;5063775;28;20028;-51
2020/12/04 06:25:53;;;;;;;8.75;4.97;;;18.30;45.60;;;;;;5064089;28;20036;-52
2020/12/04 06:28:20;;;;;;;7.15;4.80;;;18.40;45.70;;;;;;5071818;28;20471;-52
2020/12/04 06:31:03;;;;;;;8.52;5.07;;;18.40;45.60;;;;;;5045384;28;20032;-52
2020/12/04 06:33:47;;;;;;;9.90;4.85;;;18.50;45.70;;;;;;5045764;28;20055;-52
2020/12/04 06:36:32;;;;;;;7.75;4.20;;;18.60;45.60;;;;;;5064198;28;20063;-52
2020/12/04 06:38:58;;;;;;;6.72;4.18;;;18.70;45.70;;;;;;5048742;28;20055;-52
2020/12/04 06:41:27;;;;;;;6.20;4.20;;;18.70;45.60;;;;;;5062500;28;20052;-54
2020/12/04 06:43:57;;;;;;;7.57;4.75;;;18.80;45.60;;;;;;5063394;28;20052;-52
2020/12/04 06:46:42;;;;;;;7.60;4.95;;;18.90;45.70;;;;;;5063521;28;20029;-53
2020/12/04 06:52:04;;;;;;;7.65;4.88;;;19.00;45.70;;;;;;5062069;28;20570;-52
2020/12/04 06:54:32;;;;;;;9.70;4.43;;;19.10;45.50;;;;;;5062934;28;20032;-52
2020/12/04 06:56:57;;;;;;;7.13;5.47;;;19.20;45.50;;;;;;5063045;28;20478;-52
2020/12/04 06:59:28;;;;;;;9.90;5.50;;;19.20;45.30;;;;;;5063238;28;20033;-53
2020/12/04 07:04:23;;;;;;;9.52;6.25;;;19.30;44.70;;;;;;5059848;28;20048;-48
2020/12/04 07:06:49;;;;;;;9.32;5.90;;;19.40;44.50;;;;;;5063481;28;20158;-46
2020/12/04 07:09:14;;;;;;;8.93;5.20;;;19.40;44.60;;;;;;5045358;28;20137;-47
2020/12/04 07:11:40;;;;;;;8.93;5.40;;;19.40;44.70;;;;;;5062648;28;20438;-48
2020/12/04 07:14:05;;;;;;;11.40;5.72;;;19.40;44.70;;;;;;5045799;28;20032;-47
2020/12/04 07:16:31;;;;;;;13.52;7.22;;;19.40;44.60;;;;;;5062933;28;20338;-48
2020/12/04 07:18:56;;;;;;;17.13;8.00;;;19.40;44.70;;;;;;5062696;28;20032;-47
2020/12/04 07:21:22;;;;;;;15.43;7.10;;;19.40;44.70;;;;;;5028948;28;20032;-47
2020/12/04 07:23:47;;;;;;;15.27;8.20;;;19.40;44.70;;;;;;5063474;28;20082;-46
2020/12/04 07:26:17;;;;;;;17.35;7.68;;;19.40;44.70;;;;;;5055007;28;20422;-47
2020/12/04 07:28:46;;;;;;;16.50;8.20;;;19.40;44.60;;;;;;5043751;28;20518;-46
2020/12/04 07:31:19;;;;;;;15.30;7.53;;;19.40;44.60;;;;;;5043042;28;20074;-46
2020/12/04 07:33:59;;;;;;;16.00;7.50;;;19.30;44.60;;;;;;5041863;28;20033;-47
2020/12/04 07:36:25;;;;;;;17.00;7.97;;;19.30;44.60;;;;;;5042707;28;21807;-46
2020/12/04 07:38:57;;;;;;;16.58;8.13;;;19.30;44.70;;;;;;5025788;28;20044;-46
2020/12/04 07:41:25;;;;;;;16.10;7.45;;;19.20;44.80;;;;;;5042771;28;20029;-47
2020/12/04 07:43:50;;;;;;;16.40;8.20;;;19.20;44.90;;;;;;5039156;28;20295;-46
2020/12/04 07:46:19;;;;;;;16.67;7.93;;;19.20;45.00;;;;;;5064005;28;20119;-47
2020/12/04 07:49:07;;;;;;;18.85;8.32;;;19.20;45.00;;;;;;5057355;28;20036;-47
2020/12/04 07:51:34;;;;;;;16.10;7.45;;;19.10;45.60;;;;;;5031638;28;20036;-49
2020/12/04 07:53:59;;;;;;;17.67;7.72;;;19.10;45.00;;;;;;5023781;28;20036;-46
2020/12/04 07:56:26;;;;;;;15.32;7.85;;;19.10;45.10;;;;;;5022969;28;20033;-50
2020/12/04 07:58:57;;;;;;;18.52;7.35;;;19.00;45.00;;;;;;5022794;28;20558;-46
2020/12/04 08:01:23;;;;;;;14.50;7.15;;;19.00;44.80;;;;;;5022022;28;20056;-46
2020/12/04 08:03:49;;;;;;;19.60;7.90;;;19.00;44.80;;;;;;5031065;28;20425;-48
2020/12/04 08:06:14;;;;;;;15.75;6.95;;;18.90;44.90;;;;;;5022646;28;20526;-46
2020/12/04 08:08:40;;;;;;;13.88;7.00;;;18.90;44.70;;;;;;5023939;28;20121;-47
2020/12/04 08:11:10;;;;;;;15.98;7.50;;;18.90;44.80;;;;;;5026259;28;20033;-47
2020/12/04 08:13:38;;;;;;;14.95;6.80;;;18.90;44.70;;;;;;5025619;28;20064;-47
2020/12/04 08:16:07;;;;;;;13.02;6.50;;;18.90;44.70;;;;;;5025696;28;20026;-46
2020/12/04 08:18:33;;;;;;;18.83;6.82;;;18.80;44.70;;;;;;5027191;28;20028;-45
2020/12/04 08:21:05;;;;;;;17.60;6.45;;;18.80;44.90;;;;;;5025149;28;20033;-45
2020/12/04 08:23:31;;;;;;;14.07;6.93;;;18.70;44.70;;;;;;5024996;28;20036;-44
2020/12/04 08:25:57;;;;;;;11.65;6.82;;;18.70;44.80;;;;;;5026532;28;20052;-45
2020/12/04 08:28:22;;;;;;;14.77;6.25;;;18.60;44.90;;;;;;5025409;28;20402;-45
2020/12/04 08:30:48;;;;;;;13.68;6.82;;;18.60;45.10;;;;;;5026364;28;20034;-46
2020/12/04 08:33:13;;;;;;;13.75;7.07;;;18.60;45.70;;;;;;5026041;28;20121;-45
2020/12/04 08:35:42;;;;;;;16.17;5.97;;;18.60;45.20;;;;;;5026435;28;20124;-45
2020/12/04 08:38:15;;;;;;;12.43;7.07;;;18.50;45.10;;;;;;5026413;28;20033;-45
2020/12/04 08:40:46;;;;;;;9.77;6.20;;;18.60;45.20;;;;;;5026349;28;20044;-46
2020/12/04 08:43:25;;;;;;;10.23;5.18;;;18.50;45.80;;;;;;5026614;28;20051;-45
2020/12/04 08:45:55;;;;;;;11.60;6.07;;;18.60;45.30;;;;;;5024653;28;20041;-45
2020/12/04 08:48:22;;;;;;;10.60;5.97;;;18.60;45.20;;;;;;5025835;28;20067;-47
2020/12/04 08:50:49;;;;;;;10.30;6.30;;;18.60;45.20;;;;;;5024892;28;20113;-44
2020/12/04 08:53:16;;;;;;;11.27;6.03;;;18.60;45.20;;;;;;5025963;28;20037;-45
2020/12/04 08:55:52;;;;;;;8.88;4.78;;;18.70;45.20;;;;;;5026082;28;20429;-44
2020/12/04 08:58:18;;;;;;;8.52;5.40;;;18.60;45.10;;;;;;5026025;28;20189;-44
2020/12/04 09:00:45;;;;;;;9.40;4.97;;;18.70;45.20;;;;;;5025157;28;20033;-46
2020/12/04 09:03:10;;;;;;;9.43;5.10;;;18.70;45.20;;;;;;5025086;28;20046;-46
2020/12/04 09:05:36;;;;;;;9.00;5.70;;;18.80;45.20;;;;;;5024494;28;20875;-45
2020/12/04 09:08:01;;;;;;;10.98;5.25;;;18.80;45.20;;;;;;5026432;28;20037;-45
2020/12/04 09:10:27;;;;;;;9.50;5.32;;;18.80;45.20;;;;;;5026163;28;20390;-45
2020/12/04 09:12:55;;;;;;;8.85;6.10;;;18.90;45.20;;;;;;5026190;28;20030;-45
2020/12/04 09:15:21;;;;;;;5.32;4.10;;;18.90;45.20;;;;;;5025622;28;20434;-44
2020/12/04 09:17:46;;;;;;;10.07;5.03;;;18.90;45.10;;;;;;5025677;28;20029;-45
2020/12/04 09:20:13;;;;;;;8.25;4.75;;;19.00;45.20;;;;;;5025633;28;20049;-45
2020/12/04 09:22:39;;;;;;;8.98;4.72;;;18.90;45.10;;;;;;5025519;28;20080;-46
2020/12/04 09:25:06;;;;;;;9.18;4.82;;;19.00;45.10;;;;;;5026253;28;20458;-45
2020/12/04 09:27:31;;;;;;;7.10;4.78;;;19.00;45.00;;;;;;5029033;28;20299;-44
2020/12/04 09:29:57;;;;;;;8.75;4.85;;;19.10;45.10;;;;;;5025207;28;20059;-47
2020/12/04 09:32:22;;;;;;;7.95;4.50;;;19.10;45.10;;;;;;5025200;28;20037;-46
2020/12/04 09:34:49;;;;;;;8.90;4.72;;;19.20;45.10;;;;;;5025766;28;20148;-45
2020/12/04 09:37:19;;;;;;;11.95;4.70;;;19.20;45.10;;;;;;5007148;28;20163;-45
2020/12/04 09:39:46;;;;;;;5.97;4.00;;;19.20;45.10;;;;;;5025075;28;20394;-45
2020/12/04 09:42:12;;;;;;;6.72;5.00;;;19.20;45.00;;;;;;5024773;28;20112;-46
2020/12/04 09:44:38;;;;;;;7.00;4.70;;;19.20;44.90;;;;;;5025642;28;20039;-45
2020/12/04 09:47:04;;;;;;;5.32;4.28;;;19.20;45.00;;;;;;5024301;28;20033;-45
2020/12/04 09:49:29;;;;;;;7.97;4.25;;;19.20;44.80;;;;;;5024922;28;20120;-45
2020/12/04 09:51:57;;;;;;;7.85;4.40;;;19.20;44.80;;;;;;5024337;28;20032;-47
2020/12/04 09:54:26;;;;;;;7.10;4.50;;;19.20;44.80;;;;;;5025224;28;20029;-45
2020/12/04 09:56:53;;;;;;;7.22;4.45;;;19.10;44.80;;;;;;5025342;28;20040;-45
2020/12/04 09:59:19;;;;;;;6.07;4.45;;;19.10;44.70;;;;;;5024630;28;20644;-45
2020/12/04 10:01:47;;;;;;;6.18;4.55;;;19.10;44.70;;;;;;5024358;28;20406;-45
2020/12/04 10:04:12;;;;;;;6.88;3.75;;;19.10;44.80;;;;;;5024559;28;20042;-45
2020/12/04 10:06:39;;;;;;;7.13;4.25;;;19.10;44.80;;;;;;5025688;28;20025;-45
2020/12/04 10:09:04;;;;;;;6.35;4.55;;;19.10;44.80;;;;;;5025036;28;20365;-45
2020/12/04 10:11:29;;;;;;;7.35;4.50;;;19.00;44.80;;;;;;5023937;28;20258;-45
2020/12/04 10:13:55;;;;;;;5.82;4.40;;;19.00;44.80;;;;;;5024798;28;20495;-45
2020/12/04 10:16:20;;;;;;;7.15;4.15;;;18.90;44.70;;;;;;5024633;28;20032;-46
2020/12/04 10:18:46;;;;;;;6.15;4.32;;;18.90;44.70;;;;;;5024445;28;20029;-48
2020/12/04 10:21:11;;;;;;;5.55;4.13;;;18.90;44.80;;;;;;5023933;28;20038;-45
2020/12/04 10:23:37;;;;;;;6.03;4.25;;;18.80;44.70;;;;;;5025397;28;20030;-46
2020/12/04 10:26:02;;;;;;;7.80;4.28;;;18.80;44.70;;;;;;5024718;28;20033;-45
2020/12/04 10:28:32;;;;;;;6.28;4.43;;;18.80;44.70;;;;;;5024397;28;20099;-45
2020/12/04 10:30:58;;;;;;;5.13;4.15;;;18.80;44.70;;;;;;5023523;28;20104;-45
2020/12/04 10:33:24;;;;;;;5.43;4.03;;;18.70;44.50;;;;;;5022868;28;20057;-45
2020/12/04 10:35:49;;;;;;;5.68;4.85;;;18.70;44.50;;;;;;5024968;28;20025;-45
2020/12/04 10:38:15;;;;;;;8.00;4.82;;;18.60;44.50;;;;;;5024410;28;20036;-45
2020/12/04 10:40:40;;;;;;;6.35;4.30;;;18.60;44.60;;;;;;5024476;28;20029;-45
2020/12/04 10:43:05;;;;;;;6.22;3.90;;;18.50;44.60;;;;;;5023678;28;20033;-45
2020/12/04 10:45:31;;;;;;;7.05;4.57;;;18.50;44.70;;;;;;5024576;28;20481;-44
2020/12/04 10:47:56;;;;;;;6.05;4.20;;;18.50;44.70;;;;;;5023939;28;20029;-44
2020/12/04 10:50:22;;;;;;;6.20;4.55;;;18.50;44.70;;;;;;5023370;28;20029;-45
2020/12/04 10:52:47;;;;;;;5.43;3.90;;;18.60;44.90;;;;;;5023196;28;20636;-44
2020/12/04 10:55:13;;;;;;;5.13;4.07;;;18.50;44.80;;;;;;5031054;28;20037;-49
2020/12/04 10:57:38;;;;;;;4.75;3.78;;;18.60;44.90;;;;;;5024240;28;20549;-45
2020/12/04 11:00:04;;;;;;;6.30;4.13;;;18.60;44.90;;;;;;5023712;28;20025;-47
2020/12/04 11:02:32;;;;;;;6.43;4.25;;;18.60;44.80;;;;;;5023133;28;20112;-44
2020/12/04 11:07:42;;;;;;;6.35;4.03;;;18.60;44.80;;;;;;5023948;28;20033;-44
2020/12/04 11:10:08;;;;;;;5.00;3.78;;;18.60;44.80;;;;;;5023432;28;20427;-45
2020/12/04 11:12:33;;;;;;;5.03;4.00;;;18.60;44.80;;;;;;5023002;28;20044;-45
2020/12/04 11:14:59;;;;;;;5.07;3.80;;;18.70;44.90;;;;;;5023469;28;20033;-45
2020/12/04 11:17:24;;;;;;;5.03;3.80;;;18.70;44.80;;;;;;5023832;28;20118;-44
2020/12/04 11:19:51;;;;;;;4.45;4.03;;;18.70;44.90;;;;;;5023615;28;20361;-45
2020/12/04 11:22:17;;;;;;;6.50;3.90;;;18.80;44.90;;;;;;5022579;28;20033;-45
2020/12/04 11:24:43;;;;;;;4.35;3.65;;;18.80;44.90;;;;;;5023508;28;20403;-46
2020/12/04 11:27:08;;;;;;;4.57;4.13;;;18.80;44.90;;;;;;5022971;28;20033;-45
2020/12/04 11:29:34;;;;;;;5.40;3.92;;;18.80;44.90;;;;;;5022979;28;20668;-45
2020/12/04 11:31:59;;;;;;;4.82;3.55;;;18.90;44.90;;;;;;5022567;28;20449;-45
2020/12/04 11:34:25;;;;;;;4.38;3.40;;;18.90;44.90;;;;;;5023607;28;20033;-45
2020/12/04 11:36:50;;;;;;;4.25;3.45;;;18.90;44.90;;;;;;5023315;28;20026;-45
2020/12/04 11:39:16;;;;;;;4.15;3.40;;;18.90;44.90;;;;;;5023517;28;20898;-46
2020/12/04 11:41:41;;;;;;;6.38;3.50;;;19.00;44.90;;;;;;5021205;28;21435;-45
2020/12/04 11:44:07;;;;;;;5.57;3.40;;;19.00;44.90;;;;;;5031017;28;20033;-46
2020/12/04 11:46:32;;;;;;;4.90;3.58;;;19.00;44.80;;;;;;5023273;28;20029;-46
2020/12/04 11:48:58;;;;;;;4.15;3.40;;;19.10;44.90;;;;;;5023172;28;20049;-45
2020/12/04 11:51:23;;;;;;;5.57;3.45;;;19.10;44.80;;;;;;5022378;28;20030;-45
2020/12/04 11:53:49;;;;;;;3.90;3.42;;;19.10;44.80;;;;;;5023267;28;20163;-45
2020/12/04 11:56:17;;;;;;;4.90;3.60;;;19.20;44.80;;;;;;5023823;28;20112;-45
2020/12/04 11:58:43;;;;;;;4.18;3.17;;;19.20;44.80;;;;;;5043242;28;20672;-45
2020/12/04 12:01:08;;;;;;;4.28;3.88;;;19.20;44.70;;;;;;5042469;28;20041;-45
2020/12/04 12:03:34;;;;;;;3.45;3.15;;;19.20;44.70;;;;;;5043030;28;20090;-45
2020/12/04 12:05:59;;;;;;;5.88;3.30;;;19.20;44.70;;;;;;5060888;28;20033;-45
2020/12/04 12:08:25;;;;;;;5.57;3.65;;;19.20;44.60;;;;;;5061779;28;20029;-45
2020/12/04 12:10:50;;;;;;;5.68;3.70;;;19.20;44.60;;;;;;5043650;28;20027;-45
2020/12/04 12:13:16;;;;;;;4.18;3.50;;;19.20;44.60;;;;;;5063367;28;20367;-45
2020/12/04 12:15:41;;;;;;;5.03;3.28;;;19.20;44.50;;;;;;5062037;28;20394;-45
2020/12/04 12:18:07;;;;;;;4.57;3.90;;;19.20;44.40;;;;;;5062006;28;20025;-45
2020/12/04 12:20:32;;;;;;;3.38;3.03;;;19.10;44.50;;;;;;5061892;28;20029;-45
2020/12/04 12:22:58;;;;;;;3.88;3.47;;;19.20;44.40;;;;;;5044183;28;20133;-45
2020/12/04 12:25:23;;;;;;;4.68;3.60;;;19.20;44.40;;;;;;5061582;28;20028;-44
2020/12/04 12:27:49;;;;;;;4.45;3.60;;;19.20;44.30;;;;;;5062692;28;20029;-47
2020/12/04 12:30:14;;;;;;;3.95;3.10;;;19.10;44.20;;;;;;5061935;28;20028;-45
2020/12/04 12:32:40;;;;;;;4.38;3.65;;;19.10;44.30;;;;;;5062041;28;20051;-45
2020/12/04 12:35:11;;;;;;;4.82;3.28;;;19.10;44.30;;;;;;5061991;28;20052;-45
2020/12/04 12:37:37;;;;;;;4.53;3.85;;;19.10;44.40;;;;;;5061444;28;20490;-45
2020/12/04 12:40:06;;;;;;;4.88;3.60;;;19.10;44.20;;;;;;5061942;28;20044;-45
2020/12/04 12:42:32;;;;;;;4.00;3.40;;;19.00;44.00;;;;;;5061115;28;20024;-45
2020/12/04 12:44:58;;;;;;;4.35;3.80;;;19.00;44.00;;;;;;5062390;28;20025;-45
2020/12/04 12:47:25;;;;;;;4.82;3.55;;;19.00;44.00;;;;;;5061709;28;20279;-45
2020/12/04 12:49:50;;;;;;;4.03;3.55;;;19.00;43.90;;;;;;5062346;28;20039;-45
2020/12/04 12:52:15;;;;;;;4.97;3.67;;;18.90;43.90;;;;;;5061055;28;20439;-46